Weather at Stanbroke Airport

Public forecast

Using degrees Celsius for public forecast. Weather courtesy of forecast.io.

Closest aviation weather report (METAR) to Stanbroke Airport

Closest report is Mount Isa Airport, 55.7 nm (103.1 km) NNW. Retrieved 2021/06/19 20:30 UTC (7 minutes ago):

YBMA 192030Z AUTO 14007KT 9999 // NCD 13/02 Q1020 RF000/0000

Closest aviation forecast (TAF) to Stanbroke Airport

Closest forecast is Mount Isa Airport, 55.7 nm (103.1 km) NNW. Retrieved 2021/06/19 18:03 UTC (3 hours ago):

TAF TAF YBMA 191607Z 1918/2006 15010KT CAVOK